createdAt,value
2022-10-10T16:58:40.865Z,1.40
2022-10-10T17:01:16.275Z,0.85
2022-10-10T17:06:14.393Z,1.13
2022-10-10T17:08:42.292Z,1.30
2022-10-10T17:11:09.845Z,1.15
2022-10-10T17:13:39.021Z,1.20
2022-10-10T17:16:47.811Z,1.25
2022-10-10T17:18:56.044Z,1.20
2022-10-10T17:21:25.245Z,0.95
2022-10-10T17:23:52.531Z,1.15
2022-10-10T17:26:22.810Z,1.13
2022-10-10T17:28:51.149Z,1.20
2022-10-10T17:31:18.371Z,1.20
2022-10-10T17:33:51.041Z,0.98
2022-10-10T17:36:24.840Z,1.15
2022-10-10T17:38:52.805Z,1.00
2022-10-10T17:41:20.687Z,1.25
2022-10-10T17:43:48.065Z,1.13
2022-10-10T17:46:33.871Z,1.20
2022-10-10T17:49:02.508Z,1.10
2022-10-10T17:51:29.511Z,1.30
2022-10-10T17:53:59.589Z,1.38
2022-10-10T17:56:26.644Z,1.40
2022-10-10T17:58:53.608Z,1.13
2022-10-10T18:01:21.591Z,1.50
2022-10-10T18:03:49.354Z,1.27
2022-10-10T18:06:20.627Z,1.73
2022-10-10T18:08:52.845Z,1.70
2022-10-10T18:11:23.826Z,1.90
2022-10-10T18:13:51.824Z,1.63
2022-10-10T18:16:21.340Z,1.65
2022-10-10T18:18:51.746Z,1.95
2022-10-10T18:21:23.803Z,1.73
2022-10-10T18:23:51.272Z,1.67
2022-10-10T18:26:21.104Z,2.58
2022-10-10T18:28:48.577Z,2.00
2022-10-10T18:31:22.157Z,1.60
2022-10-10T18:33:49.991Z,1.80
2022-10-10T18:36:20.429Z,1.70
2022-10-10T18:38:48.707Z,2.47
2022-10-10T18:41:20.760Z,2.08
2022-10-10T18:43:49.151Z,1.80
2022-10-10T18:46:19.276Z,1.85
2022-10-10T18:48:51.316Z,2.10
2022-10-10T18:51:24.685Z,1.92
2022-10-10T18:53:56.132Z,1.85
2022-10-10T18:56:26.620Z,1.48
2022-10-10T18:58:57.531Z,1.70
2022-10-10T19:01:27.231Z,1.48
2022-10-10T19:04:12.790Z,1.77
2022-10-10T19:06:41.302Z,2.05
2022-10-10T19:09:14.388Z,1.75
2022-10-10T19:11:46.297Z,1.70
2022-10-10T19:14:32.180Z,1.60
2022-10-10T19:17:04.097Z,1.45
2022-10-10T19:19:34.270Z,1.40
2022-10-10T19:22:01.287Z,1.40
2022-10-10T19:24:28.829Z,1.70
2022-10-10T19:26:57.123Z,1.50
2022-10-10T19:29:34.493Z,1.65
2022-10-10T19:32:04.119Z,1.63
2022-10-10T19:34:31.556Z,1.77
2022-10-10T19:37:00.854Z,1.50
2022-10-10T19:39:50.180Z,1.92
2022-10-10T19:42:15.982Z,1.85
2022-10-10T19:44:43.319Z,1.92
2022-10-10T19:47:17.249Z,2.08
2022-10-10T19:49:51.226Z,2.00
2022-10-10T19:52:22.508Z,1.80
2022-10-10T19:54:57.032Z,2.05
2022-10-10T19:57:25.476Z,1.98
2022-10-10T19:59:53.057Z,1.58
2022-10-10T20:02:20.220Z,1.75
2022-10-10T20:04:49.892Z,1.63
2022-10-10T20:07:26.108Z,1.80
2022-10-10T20:10:04.844Z,1.60
2022-10-10T20:12:38.034Z,1.67
2022-10-10T20:15:06.063Z,1.50
2022-10-10T20:17:33.058Z,1.80
2022-10-10T20:20:02.022Z,1.83
2022-10-10T20:22:31.512Z,1.50
2022-10-10T20:24:58.737Z,1.55
2022-10-10T20:27:31.361Z,1.90
2022-10-10T20:29:58.872Z,1.73
2022-10-10T20:32:26.249Z,1.60
2022-10-10T20:34:55.770Z,1.83
2022-10-10T20:37:34.559Z,1.75
2022-10-10T20:40:13.475Z,1.83
2022-10-10T20:42:41.061Z,1.70
2022-10-10T20:45:11.335Z,1.63
2022-10-10T20:47:46.464Z,1.42
2022-10-10T20:50:25.595Z,1.85
2022-10-10T20:52:55.308Z,1.50
2022-10-10T20:55:22.542Z,1.42
2022-10-10T20:57:51.204Z,1.58
2022-10-10T21:00:21.836Z,1.88
2022-10-10T21:03:11.376Z,1.60
2022-10-10T21:05:47.085Z,2.17
2022-10-10T21:08:26.470Z,1.85
2022-10-10T21:11:18.928Z,1.90
2022-10-10T21:14:09.945Z,1.83
2022-10-10T21:16:48.770Z,2.25
2022-10-10T21:19:23.721Z,2.00
2022-10-10T21:22:07.716Z,1.95
2022-10-10T21:25:03.048Z,1.88
2022-10-10T21:27:43.807Z,2.30
2022-10-10T21:30:30.423Z,2.35
2022-10-10T21:33:40.475Z,2.75
2022-10-10T21:36:17.051Z,2.20
2022-10-10T21:39:00.322Z,2.22
2022-10-10T21:41:29.238Z,2.40
2022-10-10T21:43:59.622Z,2.40
2022-10-10T21:46:36.220Z,2.38
2022-10-10T21:49:07.557Z,2.00
2022-10-10T21:51:40.848Z,2.08
2022-10-10T21:54:12.180Z,2.20
2022-10-10T21:56:40.173Z,2.55
2022-10-10T21:59:08.200Z,1.92
2022-10-10T22:01:47.672Z,2.10
2022-10-10T22:04:17.576Z,2.10
2022-10-10T22:06:45.376Z,2.20
2022-10-10T22:09:16.115Z,2.10
2022-10-10T22:11:43.522Z,1.98
2022-10-10T22:14:11.126Z,2.40
2022-10-10T22:16:40.978Z,3.08
2022-10-10T22:19:08.683Z,3.10
2022-10-10T22:21:35.917Z,4.22
2022-10-10T22:24:05.725Z,3.92
2022-10-10T22:26:34.074Z,4.18
2022-10-10T22:29:04.014Z,6.45
2022-10-10T22:31:31.075Z,4.82
2022-10-10T22:33:58.205Z,4.45
2022-10-10T22:36:27.014Z,4.10
2022-10-10T22:38:56.166Z,4.55
2022-10-10T22:41:23.483Z,5.35
2022-10-10T22:43:50.879Z,4.75
2022-10-10T22:46:17.898Z,5.10
2022-10-10T22:48:44.881Z,4.82
2022-10-10T22:51:16.977Z,3.92
2022-10-10T22:53:45.132Z,3.97
2022-10-10T22:56:15.754Z,3.72
2022-10-10T22:58:43.649Z,4.00
2022-10-10T23:01:15.279Z,2.60
2022-10-10T23:03:43.049Z,3.33
2022-10-10T23:06:10.101Z,2.67
2022-10-10T23:08:37.779Z,3.30
2022-10-10T23:11:04.999Z,2.88
2022-10-10T23:13:32.390Z,4.28
2022-10-10T23:15:59.440Z,4.15
2022-10-10T23:18:28.541Z,3.65
2022-10-10T23:20:56.119Z,4.25
2022-10-10T23:23:23.071Z,3.72
2022-10-10T23:25:50.162Z,3.72
2022-10-10T23:28:19.446Z,3.55
2022-10-10T23:30:48.343Z,3.53
2022-10-10T23:33:17.921Z,4.32
2022-10-10T23:35:44.975Z,4.00
2022-10-10T23:38:11.853Z,4.50
2022-10-10T23:40:41.161Z,3.75
2022-10-10T23:43:10.841Z,3.97
2022-10-10T23:45:40.768Z,3.17
2022-10-10T23:48:07.853Z,4.22
2022-10-10T23:50:34.995Z,3.67
2022-10-10T23:53:02.143Z,2.88
2022-10-10T23:55:29.160Z,2.95
2022-10-10T23:58:00.627Z,2.83
